sensor_id;sensor_type;location;lat;lon;timestamp;temperature;humidity
56123;DHT22;42426;46.104;19.656;2023-05-07T00:02:13;461.40;1740.80
56123;DHT22;42426;46.104;19.656;2023-05-07T00:04:39;461.40;1740.80
56123;DHT22;42426;46.104;19.656;2023-05-07T00:07:20;461.40;1740.80
56123;DHT22;42426;46.104;19.656;2023-05-07T00:09:46;461.30;1766.40
56123;DHT22;42426;46.104;19.656;2023-05-07T00:12:12;461.30;1766.40
56123;DHT22;42426;46.104;19.656;2023-05-07T00:14:40;461.30;1740.80
56123;DHT22;42426;46.104;19.656;2023-05-07T00:17:06;461.30;1740.80
56123;DHT22;42426;46.104;19.656;2023-05-07T00:19:32;461.30;1766.40
56123;DHT22;42426;46.104;19.656;2023-05-07T00:21:57;461.20;1766.40
56123;DHT22;42426;46.104;19.656;2023-05-07T00:24:24;461.20;1766.40
56123;DHT22;42426;46.104;19.656;2023-05-07T00:26:49;461.20;1766.40
56123;DHT22;42426;46.104;19.656;2023-05-07T00:29:15;461.20;1766.40
56123;DHT22;42426;46.104;19.656;2023-05-07T00:31:41;461.20;1766.40
56123;DHT22;42426;46.104;19.656;2023-05-07T00:34:07;461.20;1766.40
56123;DHT22;42426;46.104;19.656;2023-05-07T00:36:33;461.20;1792.00
56123;DHT22;42426;46.104;19.656;2023-05-07T00:39:02;461.10;1792.00
56123;DHT22;42426;46.104;19.656;2023-05-07T00:41:30;461.10;1792.00
56123;DHT22;42426;46.104;19.656;2023-05-07T00:43:56;461.10;1792.00
56123;DHT22;42426;46.104;19.656;2023-05-07T00:46:22;461.10;1792.00
56123;DHT22;42426;46.104;19.656;2023-05-07T00:48:50;461.30;1792.00
56123;DHT22;42426;46.104;19.656;2023-05-07T00:51:17;461.10;1817.60
56123;DHT22;42426;46.104;19.656;2023-05-07T00:53:43;461.10;1792.00
56123;DHT22;42426;46.104;19.656;2023-05-07T00:56:10;461.00;1792.00
56123;DHT22;42426;46.104;19.656;2023-05-07T00:58:36;461.00;1792.00
56123;DHT22;42426;46.104;19.656;2023-05-07T01:01:02;460.90;1792.00
56123;DHT22;42426;46.104;19.656;2023-05-07T01:03:28;460.90;1817.60
56123;DHT22;42426;46.104;19.656;2023-05-07T01:05:54;436.10;1792.00
56123;DHT22;42426;46.104;19.656;2023-05-07T01:08:22;436.10;1792.00
56123;DHT22;42426;46.104;19.656;2023-05-07T01:10:51;436.10;1792.00
56123;DHT22;42426;46.104;19.656;2023-05-07T01:13:18;436.10;1792.00
56123;DHT22;42426;46.104;19.656;2023-05-07T01:15:45;436.10;1792.00
56123;DHT22;42426;46.104;19.656;2023-05-07T01:18:10;436.10;1792.00
56123;DHT22;42426;46.104;19.656;2023-05-07T01:20:36;436.00;1792.00
56123;DHT22;42426;46.104;19.656;2023-05-07T01:23:03;436.00;1792.00
56123;DHT22;42426;46.104;19.656;2023-05-07T01:25:29;436.00;1817.60
56123;DHT22;42426;46.104;19.656;2023-05-07T01:27:56;436.00;1817.60
56123;DHT22;42426;46.104;19.656;2023-05-07T01:30:22;436.00;1817.60
56123;DHT22;42426;46.104;19.656;2023-05-07T01:32:52;436.00;1817.60
56123;DHT22;42426;46.104;19.656;2023-05-07T01:35:27;435.90;1843.20
56123;DHT22;42426;46.104;19.656;2023-05-07T02:12:08;436.00;1843.20
56123;DHT22;42426;46.104;19.656;2023-05-07T02:14:34;435.80;1843.20
56123;DHT22;42426;46.104;19.656;2023-05-07T02:17:00;435.70;1868.80
56123;DHT22;42426;46.104;19.656;2023-05-07T02:19:25;435.60;1894.40
56123;DHT22;42426;46.104;19.656;2023-05-07T02:21:51;435.50;1894.40
56123;DHT22;42426;46.104;19.656;2023-05-07T02:24:18;435.60;1894.40
56123;DHT22;42426;46.104;19.656;2023-05-07T02:26:44;435.60;1894.40
56123;DHT22;42426;46.104;19.656;2023-05-07T02:29:09;435.60;1894.40
56123;DHT22;42426;46.104;19.656;2023-05-07T02:31:35;435.60;1894.40
56123;DHT22;42426;46.104;19.656;2023-05-07T02:34:01;435.50;1894.40
56123;DHT22;42426;46.104;19.656;2023-05-07T02:36:27;435.50;1894.40
56123;DHT22;42426;46.104;19.656;2023-05-07T02:38:53;435.40;1920.00
56123;DHT22;42426;46.104;19.656;2023-05-07T02:41:19;435.40;1894.40
56123;DHT22;42426;46.104;19.656;2023-05-07T02:43:45;435.50;1894.40
56123;DHT22;42426;46.104;19.656;2023-05-07T02:46:11;435.40;1894.40
56123;DHT22;42426;46.104;19.656;2023-05-07T02:48:37;435.40;1894.40
56123;DHT22;42426;46.104;19.656;2023-05-07T02:51:03;435.30;1894.40
56123;DHT22;42426;46.104;19.656;2023-05-07T02:53:29;435.30;1920.00
56123;DHT22;42426;46.104;19.656;2023-05-07T02:55:56;435.30;1920.00
56123;DHT22;42426;46.104;19.656;2023-05-07T03:54:32;410.50;1971.20
56123;DHT22;42426;46.104;19.656;2023-05-07T03:56:58;410.30;1996.80
56123;DHT22;42426;46.104;19.656;2023-05-07T04:04:17;410.50;1971.20
56123;DHT22;42426;46.104;19.656;2023-05-07T04:06:43;410.30;1996.80
56123;DHT22;42426;46.104;19.656;2023-05-07T04:09:09;410.20;1996.80
56123;DHT22;42426;46.104;19.656;2023-05-07T04:11:35;410.20;1996.80
56123;DHT22;42426;46.104;19.656;2023-05-07T04:14:01;410.20;1996.80
56123;DHT22;42426;46.104;19.656;2023-05-07T04:16:27;410.20;1996.80
56123;DHT22;42426;46.104;19.656;2023-05-07T04:18:53;410.10;1996.80
56123;DHT22;42426;46.104;19.656;2023-05-07T04:21:19;410.20;1996.80
56123;DHT22;42426;46.104;19.656;2023-05-07T04:23:49;410.20;1996.80
56123;DHT22;42426;46.104;19.656;2023-05-07T04:26:15;410.30;1996.80
56123;DHT22;42426;46.104;19.656;2023-05-07T04:28:41;410.20;1996.80
56123;DHT22;42426;46.104;19.656;2023-05-07T04:31:07;410.30;1996.80
56123;DHT22;42426;46.104;19.656;2023-05-07T04:33:34;410.30;1996.80
56123;DHT22;42426;46.104;19.656;2023-05-07T04:36:04;410.20;1996.80
56123;DHT22;42426;46.104;19.656;2023-05-07T04:38:30;410.30;1996.80
56123;DHT22;42426;46.104;19.656;2023-05-07T04:40:58;410.40;1996.80
56123;DHT22;42426;46.104;19.656;2023-05-07T04:43:24;410.40;1996.80
56123;DHT22;42426;46.104;19.656;2023-05-07T04:45:51;410.40;1996.80
56123;DHT22;42426;46.104;19.656;2023-05-07T04:48:17;410.40;1996.80
56123;DHT22;42426;46.104;19.656;2023-05-07T04:50:47;410.50;1996.80
56123;DHT22;42426;46.104;19.656;2023-05-07T04:53:12;410.50;1971.20
56123;DHT22;42426;46.104;19.656;2023-05-07T04:55:38;410.40;1996.80
56123;DHT22;42426;46.104;19.656;2023-05-07T04:58:04;410.40;1996.80
56123;DHT22;42426;46.104;19.656;2023-05-07T05:00:30;410.40;1996.80
56123;DHT22;42426;46.104;19.656;2023-05-07T05:02:56;410.40;1996.80
56123;DHT22;42426;46.104;19.656;2023-05-07T05:05:22;410.40;1996.80
56123;DHT22;42426;46.104;19.656;2023-05-07T05:07:48;410.40;1996.80
56123;DHT22;42426;46.104;19.656;2023-05-07T05:10:14;410.40;2022.40
56123;DHT22;42426;46.104;19.656;2023-05-07T05:12:39;410.40;2022.40
56123;DHT22;42426;46.104;19.656;2023-05-07T05:15:06;410.40;2022.40
56123;DHT22;42426;46.104;19.656;2023-05-07T05:17:32;410.30;2022.40
56123;DHT22;42426;46.104;19.656;2023-05-07T05:20:00;410.40;2022.40
56123;DHT22;42426;46.104;19.656;2023-05-07T05:22:25;410.50;2022.40
56123;DHT22;42426;46.104;19.656;2023-05-07T05:24:52;410.50;1996.80
56123;DHT22;42426;46.104;19.656;2023-05-07T05:27:17;435.20;1996.80
56123;DHT22;42426;46.104;19.656;2023-05-07T05:29:43;435.20;1996.80
56123;DHT22;42426;46.104;19.656;2023-05-07T05:32:09;435.30;1996.80
56123;DHT22;42426;46.104;19.656;2023-05-07T05:34:35;435.30;1996.80
56123;DHT22;42426;46.104;19.656;2023-05-07T05:37:01;435.30;1996.80
56123;DHT22;42426;46.104;19.656;2023-05-07T05:39:27;435.40;1996.80
56123;DHT22;42426;46.104;19.656;2023-05-07T05:41:52;435.40;1996.80
56123;DHT22;42426;46.104;19.656;2023-05-07T05:44:18;435.40;1971.20
56123;DHT22;42426;46.104;19.656;2023-05-07T05:46:46;435.50;1971.20
56123;DHT22;42426;46.104;19.656;2023-05-07T05:49:11;435.50;1996.80
56123;DHT22;42426;46.104;19.656;2023-05-07T05:51:39;435.60;1996.80
56123;DHT22;42426;46.104;19.656;2023-05-07T05:54:05;435.50;1996.80
56123;DHT22;42426;46.104;19.656;2023-05-07T05:56:31;435.60;1996.80
56123;DHT22;42426;46.104;19.656;2023-05-07T05:58:57;435.50;1996.80
56123;DHT22;42426;46.104;19.656;2023-05-07T06:01:24;435.60;1996.80
56123;DHT22;42426;46.104;19.656;2023-05-07T06:03:49;435.60;1996.80
56123;DHT22;42426;46.104;19.656;2023-05-07T06:06:16;435.60;1996.80
56123;DHT22;42426;46.104;19.656;2023-05-07T06:08:42;435.70;1971.20
56123;DHT22;42426;46.104;19.656;2023-05-07T06:11:08;435.70;1996.80
56123;DHT22;42426;46.104;19.656;2023-05-07T06:13:34;435.80;1996.80
56123;DHT22;42426;46.104;19.656;2023-05-07T06:16:00;435.90;1996.80
56123;DHT22;42426;46.104;19.656;2023-05-07T06:18:25;435.90;1996.80
56123;DHT22;42426;46.104;19.656;2023-05-07T06:20:52;436.00;1996.80
56123;DHT22;42426;46.104;19.656;2023-05-07T06:30:42;461.40;1971.20
56123;DHT22;42426;46.104;19.656;2023-05-07T06:33:10;461.20;1971.20
56123;DHT22;42426;46.104;19.656;2023-05-07T06:35:36;461.30;1971.20
56123;DHT22;42426;46.104;19.656;2023-05-07T06:38:02;461.30;1971.20
56123;DHT22;42426;46.104;19.656;2023-05-07T06:40:28;461.50;1945.60
56123;DHT22;42426;46.104;19.656;2023-05-07T06:42:54;461.60;1945.60
56123;DHT22;42426;46.104;19.656;2023-05-07T06:45:20;461.60;1945.60
56123;DHT22;42426;46.104;19.656;2023-05-07T06:47:46;486.40;1920.00
56123;DHT22;42426;46.104;19.656;2023-05-07T06:50:12;486.50;1920.00
56123;DHT22;42426;46.104;19.656;2023-05-07T06:52:38;486.50;1920.00
56123;DHT22;42426;46.104;19.656;2023-05-07T06:55:04;486.60;1894.40
56123;DHT22;42426;46.104;19.656;2023-05-07T06:57:31;486.90;1894.40
56123;DHT22;42426;46.104;19.656;2023-05-07T06:59:56;486.80;1894.40
56123;DHT22;42426;46.104;19.656;2023-05-07T07:02:23;486.80;1868.80
56123;DHT22;42426;46.104;19.656;2023-05-07T07:04:49;487.00;1868.80
56123;DHT22;42426;46.104;19.656;2023-05-07T07:07:14;487.10;1868.80
56123;DHT22;42426;46.104;19.656;2023-05-07T07:09:40;487.20;1843.20
56123;DHT22;42426;46.104;19.656;2023-05-07T07:12:06;487.30;1843.20
56123;DHT22;42426;46.104;19.656;2023-05-07T07:14:32;512.30;1843.20
56123;DHT22;42426;46.104;19.656;2023-05-07T07:16:58;512.10;1843.20
56123;DHT22;42426;46.104;19.656;2023-05-07T07:19:23;512.20;1817.60
56123;DHT22;42426;46.104;19.656;2023-05-07T07:21:49;512.30;1792.00
56123;DHT22;42426;46.104;19.656;2023-05-07T07:24:15;512.40;1792.00
56123;DHT22;42426;46.104;19.656;2023-05-07T07:26:45;512.50;1792.00
56123;DHT22;42426;46.104;19.656;2023-05-07T07:29:10;512.60;1740.80
56123;DHT22;42426;46.104;19.656;2023-05-07T07:31:36;512.70;1740.80
56123;DHT22;42426;46.104;19.656;2023-05-07T07:34:02;512.80;1740.80
56123;DHT22;42426;46.104;19.656;2023-05-07T07:36:28;512.80;1715.20
56123;DHT22;42426;46.104;19.656;2023-05-07T07:38:54;512.90;1689.60
56123;DHT22;42426;46.104;19.656;2023-05-07T07:41:20;512.90;1664.00
56123;DHT22;42426;46.104;19.656;2023-05-07T07:43:48;537.60;1664.00
56123;DHT22;42426;46.104;19.656;2023-05-07T07:46:14;537.70;1664.00
56123;DHT22;42426;46.104;19.656;2023-05-07T07:48:41;537.90;1664.00
56123;DHT22;42426;46.104;19.656;2023-05-07T07:51:07;538.00;1664.00
56123;DHT22;42426;46.104;19.656;2023-05-07T07:53:33;538.00;1664.00
56123;DHT22;42426;46.104;19.656;2023-05-07T07:55:59;538.10;1664.00
56123;DHT22;42426;46.104;19.656;2023-05-07T07:58:25;538.10;1638.40
56123;DHT22;42426;46.104;19.656;2023-05-07T08:00:51;538.20;1587.20
56123;DHT22;42426;46.104;19.656;2023-05-07T08:03:17;538.30;1587.20
56123;DHT22;42426;46.104;19.656;2023-05-07T08:05:43;538.40;1587.20
56123;DHT22;42426;46.104;19.656;2023-05-07T08:08:09;538.40;1587.20
56123;DHT22;42426;46.104;19.656;2023-05-07T08:10:35;538.50;1536.00
56123;DHT22;42426;46.104;19.656;2023-05-07T08:13:04;563.20;1612.80
56123;DHT22;42426;46.104;19.656;2023-05-07T08:15:30;563.30;1587.20
56123;DHT22;42426;46.104;19.656;2023-05-07T08:17:56;563.40;1587.20
56123;DHT22;42426;46.104;19.656;2023-05-07T08:20:23;563.50;1561.60
56123;DHT22;42426;46.104;19.656;2023-05-07T08:22:49;563.50;1561.60
56123;DHT22;42426;46.104;19.656;2023-05-07T08:25:14;563.50;1587.20
56123;DHT22;42426;46.104;19.656;2023-05-07T08:27:40;563.50;1536.00
56123;DHT22;42426;46.104;19.656;2023-05-07T08:30:06;563.60;1561.60
56123;DHT22;42426;46.104;19.656;2023-05-07T08:32:33;563.50;1536.00
56123;DHT22;42426;46.104;19.656;2023-05-07T08:34:59;563.50;1561.60
56123;DHT22;42426;46.104;19.656;2023-05-07T08:37:25;563.70;1561.60
56123;DHT22;42426;46.104;19.656;2023-05-07T08:39:51;563.60;1561.60
56123;DHT22;42426;46.104;19.656;2023-05-07T08:42:17;563.60;1561.60
56123;DHT22;42426;46.104;19.656;2023-05-07T08:44:45;563.60;1561.60
56123;DHT22;42426;46.104;19.656;2023-05-07T08:47:13;563.60;1561.60
56123;DHT22;42426;46.104;19.656;2023-05-07T08:49:39;563.60;1561.60
56123;DHT22;42426;46.104;19.656;2023-05-07T08:52:06;563.60;1536.00
56123;DHT22;42426;46.104;19.656;2023-05-07T08:54:32;563.60;1561.60
56123;DHT22;42426;46.104;19.656;2023-05-07T08:56:59;563.70;1561.60
56123;DHT22;42426;46.104;19.656;2023-05-07T08:59:25;563.70;1536.00
56123;DHT22;42426;46.104;19.656;2023-05-07T09:01:52;563.70;1536.00
56123;DHT22;42426;46.104;19.656;2023-05-07T09:04:18;563.80;1536.00
56123;DHT22;42426;46.104;19.656;2023-05-07T09:06:43;563.70;1536.00
56123;DHT22;42426;46.104;19.656;2023-05-07T09:09:09;563.80;1536.00
56123;DHT22;42426;46.104;19.656;2023-05-07T09:11:39;563.70;1536.00
56123;DHT22;42426;46.104;19.656;2023-05-07T09:14:05;563.80;1561.60
56123;DHT22;42426;46.104;19.656;2023-05-07T09:16:31;563.80;1510.40
56123;DHT22;42426;46.104;19.656;2023-05-07T09:18:58;563.80;1536.00
56123;DHT22;42426;46.104;19.656;2023-05-07T09:21:24;563.80;1536.00
56123;DHT22;42426;46.104;19.656;2023-05-07T09:23:55;563.80;1536.00
56123;DHT22;42426;46.104;19.656;2023-05-07T09:26:24;563.80;1510.40
56123;DHT22;42426;46.104;19.656;2023-05-07T09:28:52;563.90;1536.00
56123;DHT22;42426;46.104;19.656;2023-05-07T09:31:18;563.90;1536.00
56123;DHT22;42426;46.104;19.656;2023-05-07T09:33:46;564.00;1536.00
56123;DHT22;42426;46.104;19.656;2023-05-07T09:36:12;588.80;1536.00
56123;DHT22;42426;46.104;19.656;2023-05-07T09:38:40;588.80;1510.40
56123;DHT22;42426;46.104;19.656;2023-05-07T09:41:09;588.90;1510.40
56123;DHT22;42426;46.104;19.656;2023-05-07T09:43:37;589.00;1484.80
56123;DHT22;42426;46.104;19.656;2023-05-07T09:46:12;589.10;1459.20
56123;DHT22;42426;46.104;19.656;2023-05-07T09:48:41;589.10;1459.20
56123;DHT22;42426;46.104;19.656;2023-05-07T09:51:29;589.20;1459.20
56123;DHT22;42426;46.104;19.656;2023-05-07T09:53:57;589.30;1433.60
56123;DHT22;42426;46.104;19.656;2023-05-07T09:56:25;589.40;1433.60
56123;DHT22;42426;46.104;19.656;2023-05-07T09:58:54;589.60;1459.20
56123;DHT22;42426;46.104;19.656;2023-05-07T10:01:20;589.70;1433.60
56123;DHT22;42426;46.104;19.656;2023-05-07T10:03:49;589.70;1408.00
56123;DHT22;42426;46.104;19.656;2023-05-07T10:06:15;589.70;1408.00
56123;DHT22;42426;46.104;19.656;2023-05-07T10:08:42;589.70;1408.00
56123;DHT22;42426;46.104;19.656;2023-05-07T10:11:09;614.40;1356.80
56123;DHT22;42426;46.104;19.656;2023-05-07T10:13:35;614.40;1382.40
56123;DHT22;42426;46.104;19.656;2023-05-07T10:16:05;589.70;1356.80
56123;DHT22;42426;46.104;19.656;2023-05-07T10:18:32;614.40;1356.80
56123;DHT22;42426;46.104;19.656;2023-05-07T10:21:08;614.40;1356.80
56123;DHT22;42426;46.104;19.656;2023-05-07T10:23:34;589.70;1382.40
56123;DHT22;42426;46.104;19.656;2023-05-07T10:26:04;589.70;1408.00
56123;DHT22;42426;46.104;19.656;2023-05-07T10:28:34;614.40;1382.40
56123;DHT22;42426;46.104;19.656;2023-05-07T10:33:54;614.40;1408.00
56123;DHT22;42426;46.104;19.656;2023-05-07T10:36:22;614.50;1382.40
56123;DHT22;42426;46.104;19.656;2023-05-07T10:38:48;614.50;1408.00
56123;DHT22;42426;46.104;19.656;2023-05-07T10:41:16;614.50;1408.00
56123;DHT22;42426;46.104;19.656;2023-05-07T10:43:45;614.50;1408.00
56123;DHT22;42426;46.104;19.656;2023-05-07T10:46:15;614.50;1433.60
56123;DHT22;42426;46.104;19.656;2023-05-07T10:51:29;614.40;1459.20
56123;DHT22;42426;46.104;19.656;2023-05-07T10:56:41;614.40;1459.20
56123;DHT22;42426;46.104;19.656;2023-05-07T11:04:16;614.40;1484.80
56123;DHT22;42426;46.104;19.656;2023-05-07T11:07:25;614.40;1484.80
56123;DHT22;42426;46.104;19.656;2023-05-07T11:15:12;614.40;1484.80
56123;DHT22;42426;46.104;19.656;2023-05-07T11:17:55;614.40;1484.80
56123;DHT22;42426;46.104;19.656;2023-05-07T11:20:46;614.50;1484.80
56123;DHT22;42426;46.104;19.656;2023-05-07T11:26:08;614.70;1484.80
56123;DHT22;42426;46.104;19.656;2023-05-07T11:28:39;614.80;1459.20
56123;DHT22;42426;46.104;19.656;2023-05-07T11:31:05;615.00;1433.60
56123;DHT22;42426;46.104;19.656;2023-05-07T11:33:34;615.20;1433.60
56123;DHT22;42426;46.104;19.656;2023-05-07T11:36:02;615.30;1433.60
56123;DHT22;42426;46.104;19.656;2023-05-07T11:38:29;640.00;1433.60
56123;DHT22;42426;46.104;19.656;2023-05-07T11:40:57;640.00;1408.00
56123;DHT22;42426;46.104;19.656;2023-05-07T11:43:24;640.00;1433.60
56123;DHT22;42426;46.104;19.656;2023-05-07T11:45:50;640.00;1408.00
56123;DHT22;42426;46.104;19.656;2023-05-07T11:48:17;640.00;1408.00
56123;DHT22;42426;46.104;19.656;2023-05-07T11:53:36;615.30;1382.40
56123;DHT22;42426;46.104;19.656;2023-05-07T11:56:13;640.00;1382.40
56123;DHT22;42426;46.104;19.656;2023-05-07T11:58:40;640.10;1408.00
56123;DHT22;42426;46.104;19.656;2023-05-07T12:01:10;640.10;1408.00
56123;DHT22;42426;46.104;19.656;2023-05-07T12:03:37;640.30;1408.00
56123;DHT22;42426;46.104;19.656;2023-05-07T12:06:08;640.50;1408.00
56123;DHT22;42426;46.104;19.656;2023-05-07T12:08:37;640.80;1356.80
56123;DHT22;42426;46.104;19.656;2023-05-07T12:11:03;665.60;1356.80
56123;DHT22;42426;46.104;19.656;2023-05-07T12:13:32;665.70;1356.80
56123;DHT22;42426;46.104;19.656;2023-05-07T12:15:59;665.90;1356.80
56123;DHT22;42426;46.104;19.656;2023-05-07T12:18:24;666.00;1331.20
56123;DHT22;42426;46.104;19.656;2023-05-07T12:20:51;666.10;1331.20
56123;DHT22;42426;46.104;19.656;2023-05-07T12:23:17;666.10;1382.40
56123;DHT22;42426;46.104;19.656;2023-05-07T12:25:43;665.90;1408.00
56123;DHT22;42426;46.104;19.656;2023-05-07T12:28:13;665.60;1433.60
56123;DHT22;42426;46.104;19.656;2023-05-07T12:30:41;640.60;1433.60
56123;DHT22;42426;46.104;19.656;2023-05-07T12:33:07;640.40;1433.60
56123;DHT22;42426;46.104;19.656;2023-05-07T12:35:41;640.10;1459.20
56123;DHT22;42426;46.104;19.656;2023-05-07T12:38:14;640.00;1484.80
56123;DHT22;42426;46.104;19.656;2023-05-07T12:40:53;615.20;1484.80
56123;DHT22;42426;46.104;19.656;2023-05-07T12:43:25;615.00;1510.40
56123;DHT22;42426;46.104;19.656;2023-05-07T12:45:54;614.80;1536.00
56123;DHT22;42426;46.104;19.656;2023-05-07T12:48:21;614.70;1536.00
56123;DHT22;42426;46.104;19.656;2023-05-07T12:50:54;614.60;1587.20
56123;DHT22;42426;46.104;19.656;2023-05-07T12:53:22;614.50;1638.40
56123;DHT22;42426;46.104;19.656;2023-05-07T12:55:50;589.60;1715.20
56123;DHT22;42426;46.104;19.656;2023-05-07T13:00:44;589.30;1766.40
56123;DHT22;42426;46.104;19.656;2023-05-07T13:03:10;589.10;1792.00
56123;DHT22;42426;46.104;19.656;2023-05-07T13:05:36;588.90;1920.00
56123;DHT22;42426;46.104;19.656;2023-05-07T13:08:02;588.80;1945.60
56123;DHT22;42426;46.104;19.656;2023-05-07T13:10:28;564.00;1996.80
56123;DHT22;42426;46.104;19.656;2023-05-07T13:12:54;563.90;2048.00
56123;DHT22;42426;46.104;19.656;2023-05-07T13:15:20;563.90;2022.40
56123;DHT22;42426;46.104;19.656;2023-05-07T13:17:47;563.80;2048.00
56123;DHT22;42426;46.104;19.656;2023-05-07T13:20:14;563.80;2073.60
56123;DHT22;42426;46.104;19.656;2023-05-07T13:22:40;563.70;2099.20
56123;DHT22;42426;46.104;19.656;2023-05-07T13:25:07;563.60;2099.20
56123;DHT22;42426;46.104;19.656;2023-05-07T13:27:34;563.60;2099.20
56123;DHT22;42426;46.104;19.656;2023-05-07T13:30:06;563.60;2099.20
56123;DHT22;42426;46.104;19.656;2023-05-07T13:32:33;563.60;2099.20
56123;DHT22;42426;46.104;19.656;2023-05-07T13:34:59;563.60;2099.20
56123;DHT22;42426;46.104;19.656;2023-05-07T13:37:25;563.70;2124.80
56123;DHT22;42426;46.104;19.656;2023-05-07T13:39:51;563.70;2124.80
56123;DHT22;42426;46.104;19.656;2023-05-07T13:42:17;563.60;2176.00
56123;DHT22;42426;46.104;19.656;2023-05-07T13:44:43;563.60;2201.60
56123;DHT22;42426;46.104;19.656;2023-05-07T13:47:09;563.60;2150.40
56123;DHT22;42426;46.104;19.656;2023-05-07T13:49:35;563.60;2176.00
56123;DHT22;42426;46.104;19.656;2023-05-07T13:52:04;563.50;2201.60
56123;DHT22;42426;46.104;19.656;2023-05-07T13:54:30;563.50;2227.20
56123;DHT22;42426;46.104;19.656;2023-05-07T13:56:56;563.40;2252.80
56123;DHT22;42426;46.104;19.656;2023-05-07T13:59:22;563.40;2304.00
56123;DHT22;42426;46.104;19.656;2023-05-07T14:01:48;563.30;2304.00
56123;DHT22;42426;46.104;19.656;2023-05-07T14:04:15;563.20;2329.60
56123;DHT22;42426;46.104;19.656;2023-05-07T14:06:40;538.50;2278.40
56123;DHT22;42426;46.104;19.656;2023-05-07T14:09:06;538.50;2329.60
56123;DHT22;42426;46.104;19.656;2023-05-07T14:11:32;538.40;2329.60
56123;DHT22;42426;46.104;19.656;2023-05-07T14:13:58;538.50;2329.60
56123;DHT22;42426;46.104;19.656;2023-05-07T14:16:27;538.50;2355.20
56123;DHT22;42426;46.104;19.656;2023-05-07T14:18:53;538.50;2329.60
56123;DHT22;42426;46.104;19.656;2023-05-07T14:21:18;538.50;2329.60
56123;DHT22;42426;46.104;19.656;2023-05-07T14:23:44;538.50;2329.60
56123;DHT22;42426;46.104;19.656;2023-05-07T14:26:10;563.20;2304.00
56123;DHT22;42426;46.104;19.656;2023-05-07T14:28:36;563.20;2304.00
56123;DHT22;42426;46.104;19.656;2023-05-07T14:31:05;538.50;2278.40
56123;DHT22;42426;46.104;19.656;2023-05-07T14:33:31;538.40;2304.00
56123;DHT22;42426;46.104;19.656;2023-05-07T14:35:57;538.30;2304.00
56123;DHT22;42426;46.104;19.656;2023-05-07T14:38:23;538.20;2329.60
56123;DHT22;42426;46.104;19.656;2023-05-07T14:40:49;538.10;2329.60
56123;DHT22;42426;46.104;19.656;2023-05-07T14:43:15;538.10;2329.60
56123;DHT22;42426;46.104;19.656;2023-05-07T14:45:40;538.00;2329.60
56123;DHT22;42426;46.104;19.656;2023-05-07T14:48:07;537.90;2355.20
56123;DHT22;42426;46.104;19.656;2023-05-07T14:50:34;537.90;2329.60
56123;DHT22;42426;46.104;19.656;2023-05-07T14:53:00;537.90;2329.60
56123;DHT22;42426;46.104;19.656;2023-05-07T14:55:26;537.80;2355.20
56123;DHT22;42426;46.104;19.656;2023-05-07T14:57:52;537.60;2355.20
56123;DHT22;42426;46.104;19.656;2023-05-07T15:00:18;537.60;2380.80
56123;DHT22;42426;46.104;19.656;2023-05-07T15:02:45;512.90;2355.20
56123;DHT22;42426;46.104;19.656;2023-05-07T15:05:11;512.80;2355.20
56123;DHT22;42426;46.104;19.656;2023-05-07T15:07:37;512.80;2329.60
56123;DHT22;42426;46.104;19.656;2023-05-07T15:10:03;512.80;2355.20
56123;DHT22;42426;46.104;19.656;2023-05-07T15:12:28;512.70;2380.80
56123;DHT22;42426;46.104;19.656;2023-05-07T15:14:54;512.60;2380.80
56123;DHT22;42426;46.104;19.656;2023-05-07T15:17:20;512.60;2380.80
56123;DHT22;42426;46.104;19.656;2023-05-07T15:19:46;512.50;2380.80
56123;DHT22;42426;46.104;19.656;2023-05-07T15:22:11;512.40;2380.80
56123;DHT22;42426;46.104;19.656;2023-05-07T15:24:39;512.20;2380.80
56123;DHT22;42426;46.104;19.656;2023-05-07T15:27:05;512.10;2380.80
56123;DHT22;42426;46.104;19.656;2023-05-07T15:29:31;512.00;2380.80
56123;DHT22;42426;46.104;19.656;2023-05-07T15:31:57;487.30;2380.80
56123;DHT22;42426;46.104;19.656;2023-05-07T15:34:23;487.30;2380.80
56123;DHT22;42426;46.104;19.656;2023-05-07T15:36:52;487.30;2380.80
56123;DHT22;42426;46.104;19.656;2023-05-07T15:39:19;487.20;2380.80
56123;DHT22;42426;46.104;19.656;2023-05-07T15:41:45;487.20;2380.80
56123;DHT22;42426;46.104;19.656;2023-05-07T15:44:10;487.20;2380.80
56123;DHT22;42426;46.104;19.656;2023-05-07T15:46:36;487.20;2380.80
56123;DHT22;42426;46.104;19.656;2023-05-07T15:49:03;487.10;2380.80
56123;DHT22;42426;46.104;19.656;2023-05-07T15:51:35;487.10;2380.80
56123;DHT22;42426;46.104;19.656;2023-05-07T15:54:10;487.20;2380.80
56123;DHT22;42426;46.104;19.656;2023-05-07T15:56:35;487.10;2380.80
56123;DHT22;42426;46.104;19.656;2023-05-07T15:59:01;487.00;2380.80
56123;DHT22;42426;46.104;19.656;2023-05-07T16:01:28;487.00;2380.80
56123;DHT22;42426;46.104;19.656;2023-05-07T16:03:54;487.00;2380.80
56123;DHT22;42426;46.104;19.656;2023-05-07T16:06:19;487.00;2380.80
56123;DHT22;42426;46.104;19.656;2023-05-07T16:08:45;487.10;2380.80
56123;DHT22;42426;46.104;19.656;2023-05-07T16:11:11;487.10;2380.80
56123;DHT22;42426;46.104;19.656;2023-05-07T16:13:38;487.10;2380.80
56123;DHT22;42426;46.104;19.656;2023-05-07T16:16:04;487.10;2380.80
56123;DHT22;42426;46.104;19.656;2023-05-07T16:18:31;487.20;2380.80
56123;DHT22;42426;46.104;19.656;2023-05-07T16:20:57;487.30;2380.80
56123;DHT22;42426;46.104;19.656;2023-05-07T16:23:25;487.30;2380.80
56123;DHT22;42426;46.104;19.656;2023-05-07T16:25:50;512.00;2380.80
56123;DHT22;42426;46.104;19.656;2023-05-07T16:28:16;512.00;2380.80
56123;DHT22;42426;46.104;19.656;2023-05-07T16:30:42;512.30;2380.80
56123;DHT22;42426;46.104;19.656;2023-05-07T16:33:08;512.50;2380.80
56123;DHT22;42426;46.104;19.656;2023-05-07T16:35:33;512.80;2380.80
56123;DHT22;42426;46.104;19.656;2023-05-07T16:38:00;537.70;2406.40
56123;DHT22;42426;46.104;19.656;2023-05-07T16:40:26;537.90;2355.20
56123;DHT22;42426;46.104;19.656;2023-05-07T16:42:52;537.70;2406.40
56123;DHT22;42426;46.104;19.656;2023-05-07T16:45:18;512.90;2380.80